createdAt,value
2022-11-19T00:04:01.465Z,19.50
2022-11-19T00:09:05.598Z,18.67
2022-11-19T00:14:09.275Z,20.43
2022-11-19T00:19:12.891Z,16.80
2022-11-19T00:24:15.379Z,15.93
2022-11-19T00:29:18.400Z,15.02
2022-11-19T00:34:20.951Z,10.68
2022-11-19T00:39:23.458Z,10.33
2022-11-19T00:44:25.989Z,10.18
2022-11-19T00:49:28.467Z,9.67
2022-11-19T00:54:30.976Z,7.22
2022-11-19T00:59:33.474Z,7.18
2022-11-19T01:04:35.939Z,6.27
2022-11-19T01:09:38.422Z,5.93
2022-11-19T01:14:41.186Z,4.90
2022-11-19T01:19:43.667Z,5.18
2022-11-19T01:24:46.164Z,4.30
2022-11-19T01:29:49.012Z,5.03
2022-11-19T01:34:53.190Z,3.70
2022-11-19T01:39:55.646Z,3.77
2022-11-19T01:45:05.332Z,3.38
2022-11-19T01:50:08.037Z,3.30
2022-11-19T01:55:10.908Z,3.63
2022-11-19T02:00:20.104Z,2.80
2022-11-19T02:05:23.190Z,3.80
2022-11-19T02:10:38.599Z,3.55
2022-11-19T02:15:55.729Z,3.80
2022-11-19T02:21:29.078Z,3.80
2022-11-19T02:26:38.282Z,3.75
2022-11-19T02:31:55.980Z,5.43
2022-11-19T02:37:02.904Z,3.90
2022-11-19T02:42:11.608Z,4.93
2022-11-19T02:47:17.597Z,4.03
2022-11-19T02:52:20.322Z,4.43
2022-11-19T02:57:22.784Z,5.47
2022-11-19T03:02:48.790Z,4.68
2022-11-19T03:07:51.331Z,1.65
2022-11-19T03:12:59.411Z,5.87
2022-11-19T03:18:13.325Z,4.78
2022-11-19T03:23:43.357Z,5.87
2022-11-19T03:28:47.374Z,4.70
2022-11-19T03:33:53.326Z,5.15
2022-11-19T03:38:59.067Z,5.57
2022-11-19T03:44:10.528Z,5.40
2022-11-19T03:49:15.814Z,5.50
2022-11-19T03:54:18.495Z,5.03
2022-11-19T03:59:24.257Z,5.18
2022-11-19T04:04:37.987Z,5.00
2022-11-19T04:09:41.060Z,5.15
2022-11-19T04:14:44.023Z,5.57
2022-11-19T04:19:46.562Z,4.47
2022-11-19T04:24:49.179Z,4.03
2022-11-19T04:29:51.719Z,4.30
2022-11-19T04:34:54.210Z,4.45
2022-11-19T04:39:56.774Z,4.87
2022-11-19T04:44:59.254Z,5.00
2022-11-19T04:50:01.680Z,4.45
2022-11-19T04:55:04.454Z,5.30
2022-11-19T05:00:07.802Z,4.25
2022-11-19T05:05:10.429Z,4.67
2022-11-19T05:10:12.967Z,5.07
2022-11-19T05:15:15.453Z,5.63
2022-11-19T05:20:18.009Z,5.53
2022-11-19T05:25:20.646Z,4.70
2022-11-19T05:30:23.176Z,5.40
2022-11-19T05:35:25.974Z,6.55
2022-11-19T05:40:28.849Z,9.40
2022-11-19T05:45:31.297Z,6.93
2022-11-19T05:50:33.794Z,7.45
2022-11-19T05:55:36.722Z,10.77
2022-11-19T06:00:39.264Z,11.25
2022-11-19T06:05:42.050Z,10.35
2022-11-19T06:10:44.599Z,10.38
2022-11-19T06:15:47.173Z,10.27
2022-11-19T06:20:49.590Z,9.30
2022-11-19T06:25:54.748Z,11.70
2022-11-19T06:30:57.178Z,11.82
2022-11-19T06:35:59.700Z,11.20
2022-11-19T06:41:02.232Z,10.30
2022-11-19T06:46:04.834Z,10.13
2022-11-19T06:51:07.506Z,11.25
2022-11-19T06:56:10.310Z,10.95
2022-11-19T07:01:15.149Z,12.30
2022-11-19T07:06:17.697Z,18.10
2022-11-19T07:11:26.197Z,13.00
2022-11-19T07:16:31.637Z,10.85
2022-11-19T07:21:34.645Z,10.68
2022-11-19T07:26:38.073Z,11.57
2022-11-19T07:31:40.645Z,12.90
2022-11-19T07:36:43.403Z,15.67
2022-11-19T07:42:10.141Z,11.65
2022-11-19T07:47:12.846Z,10.60
2022-11-19T07:52:15.318Z,10.10
2022-11-19T07:57:17.983Z,12.43
2022-11-19T08:02:20.439Z,10.60
2022-11-19T08:07:23.044Z,9.15
2022-11-19T08:12:25.501Z,11.48
2022-11-19T08:18:00.162Z,9.33
2022-11-19T08:23:02.647Z,10.23
2022-11-19T08:28:05.946Z,9.50
2022-11-19T08:33:08.865Z,8.52
2022-11-19T08:38:11.471Z,9.52
2022-11-19T08:43:13.999Z,26.83
2022-11-19T08:48:16.447Z,18.58
2022-11-19T08:53:18.930Z,10.70
2022-11-19T08:58:21.409Z,9.38
2022-11-19T09:03:23.932Z,11.43
2022-11-19T09:08:26.397Z,11.40
2022-11-19T09:13:28.860Z,10.10
2022-11-19T09:18:32.974Z,10.47
2022-11-19T09:23:35.603Z,12.43
2022-11-19T09:28:38.114Z,11.32
2022-11-19T09:33:44.759Z,8.10
2022-11-19T09:38:48.195Z,7.35
2022-11-19T09:44:11.926Z,8.77
2022-11-19T09:49:30.808Z,8.48
2022-11-19T09:54:33.869Z,9.02
2022-11-19T09:59:38.753Z,6.27
2022-11-19T10:04:41.285Z,6.10
2022-11-19T10:09:53.082Z,6.23
2022-11-19T10:15:04.605Z,6.15
2022-11-19T10:20:28.807Z,8.00
2022-11-19T10:25:43.214Z,6.90
2022-11-19T10:30:51.628Z,8.55
2022-11-19T10:36:03.157Z,9.57
2022-11-19T10:41:34.563Z,8.02
2022-11-19T10:46:37.127Z,11.23
2022-11-19T10:51:42.875Z,9.60
2022-11-19T10:56:45.422Z,8.80
2022-11-19T11:01:50.977Z,8.27
2022-11-19T11:06:59.273Z,8.43
2022-11-19T11:12:52.795Z,10.82
2022-11-19T11:18:04.052Z,13.87
2022-11-19T11:23:15.493Z,10.68
2022-11-19T11:28:20.358Z,10.13
2022-11-19T11:33:28.528Z,12.52
2022-11-19T11:38:31.289Z,13.15
2022-11-19T11:43:34.984Z,16.63
2022-11-19T11:48:44.171Z,14.13
2022-11-19T11:54:18.345Z,11.77
2022-11-19T11:59:28.514Z,10.45
2022-11-19T12:04:31.623Z,9.52
2022-11-19T12:09:55.503Z,10.30
2022-11-19T12:15:04.088Z,9.95
2022-11-19T12:20:43.120Z,9.07
2022-11-19T12:26:12.669Z,9.05
2022-11-19T12:31:20.925Z,10.63
2022-11-19T12:36:52.327Z,11.97
2022-11-19T12:42:06.752Z,11.48
2022-11-19T12:47:50.627Z,11.13
2022-11-19T12:53:04.635Z,13.27
2022-11-19T12:58:22.285Z,12.65
2022-11-19T13:03:55.613Z,15.23
2022-11-19T13:09:06.314Z,16.60
2022-11-19T13:14:28.913Z,16.23
2022-11-19T13:19:36.967Z,14.85
2022-11-19T13:25:11.119Z,17.65
2022-11-19T13:30:22.728Z,15.27
2022-11-19T13:35:38.845Z,15.63
2022-11-19T13:40:48.506Z,15.90
2022-11-19T13:46:09.035Z,16.63
2022-11-19T13:51:31.200Z,15.13
2022-11-19T13:56:45.847Z,14.97
2022-11-19T14:02:19.238Z,15.32
2022-11-19T14:07:52.351Z,17.43
2022-11-19T14:13:22.455Z,17.25
2022-11-19T14:19:01.532Z,19.15
2022-11-19T14:24:42.644Z,18.87
2022-11-19T14:29:45.069Z,21.25
2022-11-19T14:35:04.593Z,15.27
2022-11-19T14:40:12.569Z,13.75
2022-11-19T14:45:15.045Z,12.25
2022-11-19T14:50:27.834Z,14.87
2022-11-19T14:55:32.987Z,15.98
2022-11-19T15:00:40.841Z,15.83
2022-11-19T15:05:45.374Z,16.15
2022-11-19T15:11:05.966Z,13.77
2022-11-19T15:16:14.461Z,11.27
2022-11-19T15:21:25.722Z,10.32
2022-11-19T15:26:28.418Z,14.30
2022-11-19T15:31:55.518Z,13.93
2022-11-19T15:37:03.305Z,18.45
2022-11-19T15:42:16.952Z,13.27
2022-11-19T15:47:28.623Z,15.07
2022-11-19T15:52:32.165Z,11.10
2022-11-19T15:57:35.573Z,12.02
2022-11-19T16:02:42.854Z,12.02
2022-11-19T16:07:46.957Z,13.00
2022-11-19T16:13:15.829Z,13.18
2022-11-19T16:18:19.982Z,16.50
2022-11-19T16:23:24.207Z,17.92
2022-11-19T16:28:30.536Z,19.65
2022-11-19T16:33:34.204Z,17.00
2022-11-19T16:38:38.384Z,20.63
2022-11-19T16:43:44.972Z,23.40
2022-11-19T16:48:50.573Z,24.35
2022-11-19T16:53:53.034Z,27.27
2022-11-19T16:58:58.391Z,29.13
2022-11-19T17:04:04.999Z,18.52
2022-11-19T17:09:07.780Z,21.17
2022-11-19T17:14:35.194Z,20.10
2022-11-19T17:19:37.703Z,23.38
2022-11-19T17:25:04.139Z,35.13
2022-11-19T17:30:21.861Z,35.33
2022-11-19T17:35:36.199Z,28.00
2022-11-19T17:41:05.215Z,26.80
2022-11-19T17:46:10.556Z,27.75
2022-11-19T17:51:24.637Z,16.67
2022-11-19T17:56:34.039Z,19.83
2022-11-19T18:01:36.556Z,25.53
2022-11-19T18:06:39.800Z,32.83
2022-11-19T18:11:44.890Z,27.52
2022-11-19T18:16:47.388Z,26.93
2022-11-19T18:21:51.587Z,24.42
2022-11-19T18:26:54.039Z,25.90
2022-11-19T18:31:56.558Z,22.48
2022-11-19T18:37:05.730Z,23.25
2022-11-19T19:00:21.354Z,24.70
2022-11-19T19:05:24.429Z,24.92
2022-11-19T19:10:40.317Z,23.83
2022-11-19T19:15:42.814Z,18.83
2022-11-19T19:20:45.441Z,20.77
2022-11-19T19:25:47.973Z,17.67
2022-11-19T19:30:50.504Z,18.10
2022-11-19T19:35:53.154Z,18.03
2022-11-19T19:41:06.176Z,15.80
2022-11-19T19:46:15.281Z,19.57
2022-11-19T19:51:19.113Z,20.52
2022-11-19T19:56:27.275Z,9.88
2022-11-19T20:01:34.909Z,18.73
2022-11-19T20:06:42.018Z,17.02
2022-11-19T20:11:44.561Z,9.63
2022-11-19T20:16:46.990Z,13.93
2022-11-19T20:21:49.579Z,11.60
2022-11-19T20:26:52.119Z,10.77
2022-11-19T20:31:54.561Z,9.25
2022-11-19T20:36:57.880Z,9.60
2022-11-19T20:42:19.063Z,11.10
2022-11-19T20:47:21.629Z,7.80
2022-11-19T20:52:24.146Z,8.43
2022-11-19T20:57:26.722Z,10.82
2022-11-19T21:02:29.507Z,12.33
2022-11-19T21:07:33.289Z,11.95
2022-11-19T21:12:35.893Z,12.15
2022-11-19T21:17:38.386Z,13.57
2022-11-19T21:22:41.336Z,14.35
2022-11-19T21:27:44.017Z,13.60
2022-11-19T21:32:46.499Z,14.23
2022-11-19T21:37:49.107Z,8.15
2022-11-19T21:42:52.528Z,7.93
2022-11-19T21:47:55.010Z,9.23
2022-11-19T21:52:57.543Z,8.40
2022-11-19T21:58:04.899Z,7.53
2022-11-19T22:03:07.761Z,9.80
2022-11-19T22:08:10.302Z,10.07
2022-11-19T22:13:12.767Z,10.20
2022-11-19T22:18:15.507Z,12.93
2022-11-19T22:23:22.966Z,16.77
2022-11-19T22:28:26.744Z,20.52
2022-11-19T22:33:33.889Z,13.83
2022-11-19T22:38:36.699Z,10.00
2022-11-19T22:43:39.899Z,12.33
2022-11-19T22:48:42.581Z,12.15
2022-11-19T22:53:45.079Z,9.18
2022-11-19T22:58:52.054Z,16.97
2022-11-19T23:03:58.858Z,15.50
2022-11-19T23:09:02.191Z,21.57
2022-11-19T23:14:05.097Z,12.85
2022-11-19T23:19:12.078Z,10.90
2022-11-19T23:24:15.007Z,10.97
2022-11-19T23:29:17.632Z,9.95
2022-11-19T23:34:20.154Z,6.07
2022-11-19T23:39:22.990Z,6.55
2022-11-19T23:44:25.641Z,11.95
2022-11-19T23:49:28.201Z,8.90
2022-11-19T23:54:30.667Z,8.00
2022-11-19T23:59:33.162Z,7.00
